createdAt,value
2022-09-26T00:00:03.082Z,9.85
2022-09-26T00:01:03.108Z,9.87
2022-09-26T00:02:03.108Z,9.84
2022-09-26T00:03:03.053Z,9.85
2022-09-26T00:04:03.024Z,9.85
2022-09-26T00:05:03.013Z,9.84
2022-09-26T00:06:03.013Z,9.84
2022-09-26T00:07:03.006Z,9.85
2022-09-26T00:08:02.993Z,9.84
2022-09-26T00:09:02.983Z,9.84
2022-09-26T00:10:02.954Z,9.85
2022-09-26T00:11:02.964Z,9.87
2022-09-26T00:12:02.936Z,9.84
2022-09-26T00:13:02.949Z,9.85
2022-09-26T00:14:02.916Z,9.87
2022-09-26T00:15:02.913Z,9.85
2022-09-26T00:16:02.905Z,9.85
2022-09-26T00:17:02.967Z,9.87
2022-09-26T00:18:02.897Z,9.87
2022-09-26T00:19:02.880Z,9.87
2022-09-26T00:20:02.855Z,9.88
2022-09-26T00:21:02.849Z,9.90
2022-09-26T00:22:02.836Z,9.90
2022-09-26T00:23:02.838Z,9.91
2022-09-26T00:24:02.817Z,9.94
2022-09-26T00:25:02.808Z,9.93
2022-09-26T00:26:02.789Z,9.94
2022-09-26T00:27:02.781Z,9.96
2022-09-26T00:28:02.790Z,9.96
2022-09-26T00:29:02.760Z,9.98
2022-09-26T00:30:02.750Z,9.98
2022-09-26T00:31:02.823Z,9.99
2022-09-26T00:32:02.733Z,9.99
2022-09-26T00:33:02.731Z,9.99
2022-09-26T00:34:02.711Z,9.96
2022-09-26T00:35:02.703Z,9.94
2022-09-26T00:36:02.700Z,9.96
2022-09-26T00:37:02.693Z,9.96
2022-09-26T00:38:02.682Z,9.93
2022-09-26T00:39:02.662Z,9.93
2022-09-26T00:40:02.642Z,9.91
2022-09-26T00:41:02.704Z,9.88
2022-09-26T00:42:02.623Z,9.84
2022-09-26T00:43:02.633Z,9.84
2022-09-26T00:44:02.606Z,9.83
2022-09-26T00:45:02.605Z,9.81
2022-09-26T00:46:02.661Z,9.80
2022-09-26T00:47:02.576Z,9.77
2022-09-26T00:48:02.576Z,9.75
2022-09-26T00:49:02.555Z,9.73
2022-09-26T00:50:02.546Z,9.72
2022-09-26T00:51:02.537Z,9.70
2022-09-26T00:52:02.527Z,9.69
2022-09-26T00:53:02.534Z,9.67
2022-09-26T00:54:02.496Z,9.66
2022-09-26T00:55:02.499Z,9.67
2022-09-26T00:56:02.478Z,9.66
2022-09-26T00:57:02.468Z,9.66
2022-09-26T00:58:02.473Z,9.66
2022-09-26T00:59:02.448Z,9.66
2022-09-26T01:00:02.437Z,9.66
2022-09-26T01:01:02.542Z,9.66
2022-09-26T01:02:03.256Z,9.67
2022-09-26T01:03:02.419Z,9.69
2022-09-26T01:04:02.390Z,9.67
2022-09-26T01:05:02.389Z,9.67
2022-09-26T01:06:02.370Z,9.69
2022-09-26T01:07:02.373Z,9.69
2022-09-26T01:08:02.362Z,9.69
2022-09-26T01:09:02.340Z,9.67
2022-09-26T01:10:02.335Z,9.67
2022-09-26T01:11:02.333Z,9.67
2022-09-26T01:12:02.312Z,9.66
2022-09-26T01:13:02.313Z,9.66
2022-09-26T01:14:02.283Z,9.67
2022-09-26T01:15:02.283Z,9.65
2022-09-26T01:16:02.268Z,9.66
2022-09-26T01:17:02.324Z,9.66
2022-09-26T01:18:02.280Z,9.65
2022-09-26T01:19:02.245Z,9.66
2022-09-26T01:20:02.225Z,9.65
2022-09-26T01:21:02.226Z,9.65
2022-09-26T01:22:02.209Z,9.65
2022-09-26T01:23:02.210Z,9.63
2022-09-26T01:24:02.197Z,9.65
2022-09-26T01:25:02.177Z,9.65
2022-09-26T01:26:02.166Z,9.66
2022-09-26T01:27:02.157Z,9.66
2022-09-26T01:28:02.148Z,9.62
2022-09-26T01:29:02.154Z,9.63
2022-09-26T01:30:02.123Z,9.62
2022-09-26T01:31:02.176Z,9.62
2022-09-26T01:32:02.101Z,9.59
2022-09-26T01:33:02.100Z,9.59
2022-09-26T01:34:02.100Z,9.55
2022-09-26T01:35:02.071Z,9.55
2022-09-26T01:36:02.073Z,9.54
2022-09-26T01:37:02.051Z,9.52
2022-09-26T01:38:02.040Z,9.54
2022-09-26T01:39:02.041Z,9.54
2022-09-26T01:40:02.012Z,9.52
2022-09-26T01:41:02.011Z,9.52
2022-09-26T01:42:01.993Z,9.50
2022-09-26T01:43:01.994Z,9.51
2022-09-26T01:44:01.982Z,9.51
2022-09-26T01:45:01.965Z,9.51
2022-09-26T01:46:02.092Z,9.51
2022-09-26T01:47:01.965Z,9.51
2022-09-26T01:48:01.938Z,9.48
2022-09-26T01:49:01.937Z,9.45
2022-09-26T01:50:01.905Z,9.44
2022-09-26T01:51:01.920Z,9.42
2022-09-26T01:52:01.885Z,9.41
2022-09-26T01:53:01.877Z,9.37
2022-09-26T01:54:01.880Z,9.36
2022-09-26T01:55:01.864Z,9.34
2022-09-26T01:56:01.846Z,9.34
2022-09-26T01:57:01.837Z,9.33
2022-09-26T01:58:01.827Z,9.33
2022-09-26T01:59:01.829Z,9.30
2022-09-26T02:00:01.811Z,9.29
2022-09-26T02:01:01.847Z,9.29
2022-09-26T02:02:01.837Z,9.27
2022-09-26T02:03:01.778Z,9.24
2022-09-26T02:04:01.778Z,9.26
2022-09-26T02:05:01.748Z,9.23
2022-09-26T02:06:01.750Z,9.24
2022-09-26T02:07:01.730Z,9.26
2022-09-26T02:08:01.719Z,9.26
2022-09-26T02:09:01.720Z,9.24
2022-09-26T02:10:01.702Z,9.27
2022-09-26T02:11:01.691Z,9.27
2022-09-26T02:12:01.686Z,9.29
2022-09-26T02:13:01.671Z,9.32
2022-09-26T02:14:01.674Z,9.30
2022-09-26T02:15:01.641Z,9.30
2022-09-26T02:16:01.645Z,9.29
2022-09-26T02:17:01.682Z,9.29
2022-09-26T02:18:01.612Z,9.27
2022-09-26T02:19:01.612Z,9.27
2022-09-26T02:20:01.593Z,9.26
2022-09-26T02:21:01.583Z,9.26
2022-09-26T02:22:01.584Z,9.26
2022-09-26T02:23:01.564Z,9.23
2022-09-26T02:24:01.570Z,9.23
2022-09-26T02:25:01.536Z,9.22
2022-09-26T02:26:01.535Z,9.23
2022-09-26T02:27:01.516Z,9.22
2022-09-26T02:28:01.515Z,9.23
2022-09-26T02:29:01.510Z,9.22
2022-09-26T02:30:01.495Z,9.24
2022-09-26T02:31:01.476Z,9.22
2022-09-26T02:32:01.512Z,9.22
2022-09-26T02:33:01.469Z,9.22
2022-09-26T02:34:01.458Z,9.22
2022-09-26T02:35:01.429Z,9.22
2022-09-26T02:36:01.435Z,9.24
2022-09-26T02:37:01.418Z,9.24
2022-09-26T02:38:01.408Z,9.24
2022-09-26T02:39:01.409Z,9.26
2022-09-26T02:40:01.411Z,9.27
2022-09-26T02:41:01.435Z,9.29
2022-09-26T02:42:01.371Z,9.27
2022-09-26T02:43:01.349Z,9.29
2022-09-26T02:44:01.359Z,9.27
2022-09-26T02:45:01.331Z,9.27
2022-09-26T02:46:01.380Z,9.26
2022-09-26T02:47:01.299Z,9.27
2022-09-26T02:48:01.301Z,9.29
2022-09-26T02:49:01.301Z,9.29
2022-09-26T02:50:01.289Z,9.29
2022-09-26T02:51:01.281Z,9.32
2022-09-26T02:52:01.262Z,9.32
2022-09-26T02:53:01.242Z,9.30
2022-09-26T02:54:01.253Z,9.30
2022-09-26T02:55:01.223Z,9.30
2022-09-26T02:56:01.213Z,9.30
2022-09-26T02:57:01.203Z,9.29
2022-09-26T02:58:01.218Z,9.30
2022-09-26T02:59:01.206Z,9.32
2022-09-26T03:00:01.173Z,9.30
2022-09-26T03:01:01.172Z,9.32
2022-09-26T03:02:01.156Z,9.32
2022-09-26T03:03:01.144Z,9.32
2022-09-26T03:04:01.145Z,9.32
2022-09-26T03:05:01.156Z,9.33
2022-09-26T03:06:01.108Z,9.33
2022-09-26T03:07:01.086Z,9.33
2022-09-26T03:08:01.090Z,9.33
2022-09-26T03:09:01.087Z,9.32
2022-09-26T03:10:01.066Z,9.32
2022-09-26T03:11:01.049Z,9.33
2022-09-26T03:12:01.047Z,9.32
2022-09-26T03:13:01.030Z,9.30
2022-09-26T03:14:01.039Z,9.32
2022-09-26T03:15:01.013Z,9.30
2022-09-26T03:16:01.041Z,9.30
2022-09-26T03:17:00.989Z,9.32
2022-09-26T03:18:00.982Z,9.29
2022-09-26T03:19:00.979Z,9.32
2022-09-26T03:20:00.960Z,9.32
2022-09-26T03:21:00.943Z,9.33
2022-09-26T03:22:00.940Z,9.30
2022-09-26T03:23:00.921Z,9.32
2022-09-26T03:24:00.939Z,9.32
2022-09-26T03:25:00.903Z,9.32
2022-09-26T03:26:00.899Z,9.30
2022-09-26T03:27:00.882Z,9.29
2022-09-26T03:28:00.883Z,9.29
2022-09-26T03:29:00.902Z,9.30
2022-09-26T03:30:00.852Z,9.26
2022-09-26T03:31:00.841Z,9.24
2022-09-26T03:32:00.889Z,9.26
2022-09-26T03:33:00.814Z,9.23
2022-09-26T03:34:00.827Z,9.23
2022-09-26T03:35:00.794Z,9.22
2022-09-26T03:36:00.794Z,9.16
2022-09-26T03:37:00.795Z,9.16
2022-09-26T03:38:00.765Z,9.16
2022-09-26T03:39:00.767Z,9.16
2022-09-26T03:40:00.745Z,9.18
2022-09-26T03:41:00.773Z,9.18
2022-09-26T03:42:00.726Z,9.18
2022-09-26T03:43:00.718Z,9.18
2022-09-26T03:44:00.715Z,9.18
2022-09-26T03:45:00.698Z,9.16
2022-09-26T03:46:00.767Z,9.19
2022-09-26T03:47:00.669Z,9.19
2022-09-26T03:48:00.665Z,9.16
2022-09-26T03:49:00.667Z,9.16
2022-09-26T03:50:00.639Z,9.18
2022-09-26T03:51:00.629Z,9.18
2022-09-26T03:52:00.620Z,9.16
2022-09-26T03:53:00.616Z,9.18
2022-09-26T03:54:00.619Z,9.18
2022-09-26T03:55:00.589Z,9.18
2022-09-26T03:56:00.582Z,9.19
2022-09-26T03:57:00.560Z,9.19
2022-09-26T03:58:00.561Z,9.19
2022-09-26T03:59:00.560Z,9.22
2022-09-26T04:00:00.536Z,9.22
2022-09-26T04:01:00.558Z,9.19
2022-09-26T04:02:00.633Z,9.18
2022-09-26T04:03:00.506Z,9.16
2022-09-26T04:04:00.502Z,9.18
2022-09-26T04:05:00.482Z,9.18
2022-09-26T04:06:00.476Z,9.18
2022-09-26T04:07:00.456Z,9.14
2022-09-26T04:08:00.453Z,9.11
2022-09-26T04:09:00.455Z,9.11
2022-09-26T04:10:00.436Z,9.09
2022-09-26T04:11:00.415Z,9.08
2022-09-26T04:12:00.417Z,9.03
2022-09-26T04:13:00.395Z,9.03
2022-09-26T04:14:00.404Z,9.01
2022-09-26T04:15:00.386Z,8.98
2022-09-26T04:16:00.435Z,8.99
2022-09-26T04:17:00.353Z,8.96
2022-09-26T04:18:00.346Z,8.95
2022-09-26T04:19:00.347Z,8.95
2022-09-26T04:20:00.330Z,8.93
2022-09-26T04:21:00.307Z,8.93
2022-09-26T04:22:00.307Z,8.92
2022-09-26T04:23:00.301Z,8.92
2022-09-26T04:24:00.305Z,8.92
2022-09-26T04:25:00.270Z,8.93
2022-09-26T04:26:00.262Z,8.95
2022-09-26T04:27:00.248Z,8.93
2022-09-26T04:28:00.238Z,8.92
2022-09-26T04:29:00.259Z,8.93
2022-09-26T04:30:00.340Z,8.92
2022-09-26T04:31:00.260Z,8.93
2022-09-26T04:32:00.318Z,8.92
2022-09-26T04:33:00.180Z,8.86
2022-09-26T04:34:00.191Z,8.86
2022-09-26T04:35:00.170Z,8.86
2022-09-26T04:36:00.153Z,8.86
2022-09-26T04:37:00.141Z,8.85
2022-09-26T04:38:00.147Z,8.86
2022-09-26T04:39:00.131Z,8.86
2022-09-26T04:40:00.125Z,8.83
2022-09-26T04:41:00.158Z,8.81
2022-09-26T04:42:00.104Z,8.80
2022-09-26T04:43:00.081Z,8.78
2022-09-26T04:44:00.090Z,8.77
2022-09-26T04:45:00.054Z,8.75
2022-09-26T04:46:00.131Z,8.74
2022-09-26T04:47:00.034Z,8.72
2022-09-26T04:48:00.026Z,8.70
2022-09-26T04:49:00.041Z,8.71
2022-09-26T04:50:00.032Z,8.68
2022-09-26T04:51:00.175Z,8.68
2022-09-26T04:52:00.005Z,8.71
2022-09-26T04:52:59.966Z,8.68
2022-09-26T04:53:59.976Z,8.70
2022-09-26T04:54:59.947Z,8.68
2022-09-26T04:55:59.946Z,8.67
2022-09-26T04:56:59.941Z,8.65
2022-09-26T04:57:59.880Z,8.65
2022-09-26T04:58:59.933Z,8.63
2022-09-26T04:59:59.897Z,8.63
2022-09-26T05:00:59.871Z,8.65
2022-09-26T05:01:59.869Z,8.62
2022-09-26T05:02:59.819Z,8.62
2022-09-26T05:03:59.821Z,8.63
2022-09-26T05:04:59.806Z,8.65
2022-09-26T05:05:59.782Z,8.63
2022-09-26T05:06:59.770Z,8.65
2022-09-26T05:07:59.760Z,8.65
2022-09-26T05:08:59.761Z,8.67
2022-09-26T05:09:59.741Z,8.67
2022-09-26T05:10:59.721Z,8.65
2022-09-26T05:11:59.723Z,8.68
2022-09-26T05:12:59.711Z,8.68
2022-09-26T05:13:59.712Z,8.68
2022-09-26T05:14:59.686Z,8.67
2022-09-26T05:15:59.793Z,8.70
2022-09-26T05:16:59.663Z,8.70
2022-09-26T05:17:59.663Z,8.70
2022-09-26T05:18:59.654Z,8.68
2022-09-26T05:19:59.643Z,8.70
2022-09-26T05:20:59.626Z,8.68
2022-09-26T05:21:59.621Z,8.68
2022-09-26T05:22:59.627Z,8.70
2022-09-26T05:23:59.606Z,8.68
2022-09-26T05:24:59.595Z,8.68
2022-09-26T05:25:59.576Z,8.70
2022-09-26T05:26:59.565Z,8.71
2022-09-26T05:27:59.556Z,8.68
2022-09-26T05:29:01.828Z,8.70
2022-09-26T05:30:00.526Z,8.67
2022-09-26T05:30:59.523Z,8.65
2022-09-26T05:31:59.562Z,8.65
2022-09-26T05:32:59.497Z,8.63
2022-09-26T05:33:59.510Z,8.63
2022-09-26T05:34:59.478Z,8.62
2022-09-26T05:35:59.475Z,8.63
2022-09-26T05:36:59.449Z,8.63
2022-09-26T05:37:59.450Z,8.63
2022-09-26T05:38:59.448Z,8.63
2022-09-26T05:39:59.429Z,8.67
2022-09-26T05:40:59.509Z,8.67
2022-09-26T05:41:59.435Z,8.67
2022-09-26T05:42:59.391Z,8.68
2022-09-26T05:43:59.401Z,8.70
2022-09-26T05:44:59.370Z,8.67
2022-09-26T05:45:59.361Z,8.68
2022-09-26T05:46:59.414Z,8.70
2022-09-26T05:47:59.341Z,8.68
2022-09-26T05:48:59.341Z,8.70
2022-09-26T05:49:59.333Z,8.70
2022-09-26T05:50:59.312Z,8.71
2022-09-26T05:51:59.293Z,8.72
2022-09-26T05:52:59.285Z,8.74
2022-09-26T05:53:59.297Z,8.72
2022-09-26T05:54:59.262Z,8.74
2022-09-26T05:55:59.254Z,8.75
2022-09-26T05:56:59.247Z,8.77
2022-09-26T05:57:59.233Z,8.80
2022-09-26T05:58:59.234Z,8.81
2022-09-26T05:59:59.214Z,8.85
2022-09-26T06:00:59.234Z,8.88
2022-09-26T06:01:59.252Z,8.90
2022-09-26T06:02:59.176Z,8.90
2022-09-26T06:03:59.185Z,8.92
2022-09-26T06:04:59.161Z,8.92
2022-09-26T06:05:59.156Z,8.95
2022-09-26T06:06:59.144Z,8.95
2022-09-26T06:07:59.128Z,8.95
2022-09-26T06:08:59.135Z,8.96
2022-09-26T06:09:59.108Z,8.95
2022-09-26T06:10:59.096Z,8.96
2022-09-26T06:11:59.087Z,8.95
2022-09-26T06:12:59.078Z,8.95
2022-09-26T06:13:59.078Z,8.96
2022-09-26T06:14:59.050Z,8.96
2022-09-26T06:15:59.087Z,8.98
2022-09-26T06:16:59.030Z,8.99
2022-09-26T06:17:59.035Z,9.01
2022-09-26T06:18:59.030Z,9.03
2022-09-26T06:19:59.003Z,9.04
2022-09-26T06:20:58.997Z,9.08
2022-09-26T06:21:58.992Z,9.06
2022-09-26T06:22:58.972Z,9.08
2022-09-26T06:23:58.972Z,9.08
2022-09-26T06:24:58.953Z,9.09
2022-09-26T06:25:58.931Z,9.09
2022-09-26T06:26:58.933Z,9.12
2022-09-26T06:28:00.180Z,9.15
2022-09-26T06:28:58.923Z,9.18
2022-09-26T06:29:58.893Z,9.19
2022-09-26T06:30:58.895Z,9.22
2022-09-26T06:31:58.957Z,9.22
2022-09-26T06:32:58.864Z,9.24
2022-09-26T06:33:58.863Z,9.26
2022-09-26T06:34:58.845Z,9.29
2022-09-26T06:35:58.835Z,9.32
2022-09-26T06:36:58.826Z,9.33
2022-09-26T06:37:58.821Z,9.36
2022-09-26T06:38:58.815Z,9.37
2022-09-26T06:39:59.617Z,9.40
2022-09-26T06:40:58.860Z,9.42
2022-09-26T06:41:58.767Z,9.42
2022-09-26T06:42:58.769Z,9.45
2022-09-26T06:43:58.758Z,9.45
2022-09-26T06:44:58.747Z,9.45
2022-09-26T06:45:58.729Z,9.45
2022-09-26T06:46:58.773Z,9.45
2022-09-26T06:47:58.706Z,9.47
2022-09-26T06:48:58.718Z,9.48
2022-09-26T06:49:58.680Z,9.45
2022-09-26T06:50:58.681Z,9.50
2022-09-26T06:51:58.660Z,9.51
2022-09-26T06:53:04.195Z,9.51
2022-09-26T06:53:59.659Z,9.52
2022-09-26T06:54:58.631Z,9.54
2022-09-26T06:55:58.620Z,9.57
2022-09-26T06:56:58.615Z,9.60
2022-09-26T06:57:58.602Z,9.62
2022-09-26T06:58:58.610Z,9.66
2022-09-26T06:59:58.609Z,9.66
2022-09-26T07:00:58.632Z,9.67
2022-09-26T07:01:58.634Z,9.69
2022-09-26T07:02:58.550Z,9.70
2022-09-26T07:03:58.553Z,9.70
2022-09-26T07:04:58.524Z,9.73
2022-09-26T07:05:58.519Z,9.75
2022-09-26T07:06:58.504Z,9.75
2022-09-26T07:07:58.487Z,9.77
2022-09-26T07:09:03.058Z,9.75
2022-09-26T07:09:59.476Z,9.75
2022-09-26T07:11:15.890Z,9.77
2022-09-26T07:12:15.737Z,9.80
2022-09-26T07:12:59.446Z,9.80
2022-09-26T07:13:58.446Z,9.77
2022-09-26T07:14:58.426Z,9.78
2022-09-26T07:15:58.451Z,9.77
2022-09-26T07:16:58.405Z,9.77
2022-09-26T07:17:58.387Z,9.78
2022-09-26T07:18:58.395Z,9.80
2022-09-26T07:19:58.368Z,9.81
2022-09-26T07:20:58.358Z,9.83
2022-09-26T07:21:58.348Z,9.84
2022-09-26T07:22:58.349Z,9.85
2022-09-26T07:23:58.336Z,9.88
2022-09-26T07:24:58.319Z,9.90
2022-09-26T07:25:58.310Z,9.90
2022-09-26T07:26:58.303Z,9.94
2022-09-26T07:27:58.292Z,9.94
2022-09-26T07:28:58.280Z,9.98
2022-09-26T07:29:58.262Z,9.99
2022-09-26T07:30:58.270Z,10.01
2022-09-26T07:31:58.318Z,10.03
2022-09-26T07:32:58.231Z,10.03
2022-09-26T07:33:58.240Z,10.06
2022-09-26T07:34:58.231Z,10.08
2022-09-26T07:36:01.882Z,10.09
2022-09-26T07:36:59.225Z,10.09
2022-09-26T07:37:58.172Z,10.09
2022-09-26T07:38:58.183Z,10.09
2022-09-26T07:40:01.397Z,10.09
2022-09-26T07:40:58.165Z,10.08
2022-09-26T07:41:58.131Z,10.09
2022-09-26T07:43:18.057Z,10.09
2022-09-26T07:45:59.094Z,10.08
2022-09-26T07:46:58.111Z,10.08
2022-09-26T07:47:58.066Z,10.09
2022-09-26T07:48:58.076Z,10.08
2022-09-26T07:49:58.045Z,10.09
2022-09-26T07:50:58.037Z,10.09
2022-09-26T07:51:58.025Z,10.08
2022-09-26T07:52:58.018Z,10.09
2022-09-26T07:53:58.018Z,10.09
2022-09-26T07:54:57.998Z,10.12
2022-09-26T07:55:58.018Z,10.16
2022-09-26T07:56:57.979Z,10.17
2022-09-26T07:57:57.962Z,10.21
2022-09-26T07:58:57.968Z,10.23
2022-09-26T07:59:57.938Z,10.27
2022-09-26T08:00:58.670Z,10.30
2022-09-26T08:01:58.102Z,10.31
2022-09-26T08:02:57.928Z,10.31
2022-09-26T08:03:57.911Z,10.34
2022-09-26T08:05:01.015Z,10.35
2022-09-26T08:05:57.881Z,10.36
2022-09-26T08:06:57.873Z,10.38
2022-09-26T08:07:58.829Z,10.39
2022-09-26T08:08:57.973Z,10.41
2022-09-26T08:09:57.853Z,10.41
2022-09-26T08:11:02.843Z,10.42
2022-09-26T08:11:58.832Z,10.45
2022-09-26T08:12:57.812Z,10.46
2022-09-26T08:13:57.794Z,10.46
2022-09-26T08:14:57.804Z,10.46
2022-09-26T08:15:57.811Z,10.48
2022-09-26T08:16:57.764Z,10.49
2022-09-26T08:17:57.757Z,10.52
2022-09-26T08:18:57.753Z,10.55
2022-09-26T08:19:57.745Z,10.57
2022-09-26T08:20:57.729Z,10.58
2022-09-26T08:21:57.715Z,10.58
2022-09-26T08:22:57.705Z,10.61
2022-09-26T08:23:57.686Z,10.64
2022-09-26T08:24:57.698Z,10.67
2022-09-26T08:25:57.667Z,10.68
2022-09-26T08:26:57.669Z,10.70
2022-09-26T08:27:57.649Z,10.73
2022-09-26T08:28:57.638Z,10.76
2022-09-26T08:29:57.650Z,10.79
2022-09-26T08:30:57.652Z,10.82
2022-09-26T08:31:57.609Z,10.83
2022-09-26T08:32:57.590Z,10.83
2022-09-26T08:33:57.604Z,10.85
2022-09-26T08:34:57.590Z,10.85
2022-09-26T08:35:57.561Z,10.85
2022-09-26T08:36:57.572Z,10.86
2022-09-26T08:37:57.541Z,10.87
2022-09-26T08:38:57.533Z,10.87
2022-09-26T08:39:57.533Z,10.90
2022-09-26T08:40:57.545Z,10.90
2022-09-26T08:41:57.502Z,10.87
2022-09-26T08:42:57.507Z,10.87
2022-09-26T08:43:57.473Z,10.90
2022-09-26T08:44:57.486Z,10.93
2022-09-26T08:45:57.502Z,10.94
2022-09-26T08:46:57.504Z,10.95
2022-09-26T08:47:57.434Z,10.98
2022-09-26T08:48:57.434Z,11.00
2022-09-26T08:49:57.425Z,11.01
2022-09-26T08:50:57.411Z,11.04
2022-09-26T08:51:57.394Z,11.08
2022-09-26T08:52:57.394Z,11.11
2022-09-26T08:53:57.375Z,11.13
2022-09-26T08:54:57.377Z,11.13
2022-09-26T08:55:57.346Z,11.18
2022-09-26T08:56:57.348Z,11.22
2022-09-26T08:57:57.328Z,11.25
2022-09-26T08:58:57.318Z,11.30
2022-09-26T08:59:57.328Z,11.34
2022-09-26T09:00:57.298Z,11.38
2022-09-26T09:01:57.430Z,11.41
2022-09-26T09:02:57.354Z,11.43
2022-09-26T09:03:57.270Z,11.46
2022-09-26T09:04:57.278Z,11.48
2022-09-26T09:05:57.240Z,11.51
2022-09-26T09:06:57.241Z,11.54
2022-09-26T09:07:57.223Z,11.58
2022-09-26T09:08:57.223Z,11.64
2022-09-26T09:09:57.212Z,11.62
2022-09-26T09:10:57.194Z,11.62
2022-09-26T09:11:57.181Z,11.62
2022-09-26T09:12:57.178Z,11.64
2022-09-26T09:13:57.161Z,11.64
2022-09-26T09:15:20.559Z,11.62
2022-09-26T09:15:58.175Z,11.64
2022-09-26T09:16:57.135Z,11.67
2022-09-26T09:17:57.114Z,11.70
2022-09-26T09:18:57.116Z,11.73
2022-09-26T09:19:57.137Z,11.79
2022-09-26T09:20:57.098Z,11.85
2022-09-26T09:21:57.086Z,11.91
2022-09-26T09:22:57.076Z,11.95
2022-09-26T09:23:57.055Z,11.97
2022-09-26T09:24:57.086Z,12.00
2022-09-26T09:25:57.046Z,12.05
2022-09-26T09:28:02.552Z,12.13
2022-09-26T09:28:58.007Z,12.15
2022-09-26T09:29:57.007Z,12.14
2022-09-26T09:30:57.045Z,12.18
2022-09-26T09:31:56.979Z,12.21
2022-09-26T09:32:56.971Z,12.25
2022-09-26T09:33:56.960Z,12.25
2022-09-26T09:34:56.970Z,12.30
2022-09-26T09:35:56.929Z,12.36
2022-09-26T09:36:56.930Z,12.41
2022-09-26T09:37:56.910Z,12.48
2022-09-26T09:38:56.901Z,12.58
2022-09-26T09:39:56.900Z,12.68
2022-09-26T09:40:56.933Z,12.73
2022-09-26T09:41:56.871Z,12.81
2022-09-26T09:42:56.875Z,12.90
2022-09-26T09:43:56.851Z,12.98
2022-09-26T09:44:56.853Z,13.09
2022-09-26T09:45:56.825Z,13.23
2022-09-26T09:46:56.851Z,13.24
2022-09-26T09:47:56.804Z,13.36
2022-09-26T09:48:56.794Z,13.57
2022-09-26T09:49:56.795Z,13.85
2022-09-26T09:50:56.774Z,14.13
2022-09-26T09:51:56.763Z,14.34
2022-09-26T09:52:56.758Z,14.56
2022-09-26T09:53:56.736Z,14.77
2022-09-26T09:54:56.746Z,14.93
2022-09-26T09:55:56.716Z,15.12
2022-09-26T09:56:56.707Z,15.27
2022-09-26T09:57:56.696Z,15.35
2022-09-26T09:58:56.687Z,15.25
2022-09-26T09:59:56.697Z,15.32
2022-09-26T10:00:56.667Z,15.20
2022-09-26T10:01:56.668Z,14.87
2022-09-26T10:02:56.685Z,14.82
2022-09-26T10:03:56.646Z,14.95
2022-09-26T10:04:56.644Z,15.25
2022-09-26T10:05:56.611Z,15.33
2022-09-26T10:06:56.621Z,15.38
2022-09-26T10:07:56.602Z,15.43
2022-09-26T10:08:56.591Z,15.60
2022-09-26T10:09:56.591Z,15.80
2022-09-26T10:10:56.561Z,15.78
2022-09-26T10:11:56.549Z,15.93
2022-09-26T10:12:56.542Z,16.00
2022-09-26T10:13:56.525Z,16.08
2022-09-26T10:14:56.543Z,16.16
2022-09-26T10:15:56.535Z,16.34
2022-09-26T10:16:56.504Z,16.64
2022-09-26T10:18:23.042Z,16.91
2022-09-26T10:19:02.984Z,16.76
2022-09-26T10:19:57.482Z,16.25
2022-09-26T10:20:56.455Z,15.96
2022-09-26T10:21:56.445Z,15.76
2022-09-26T10:22:56.437Z,15.60
2022-09-26T10:23:56.426Z,15.51
2022-09-26T10:24:56.434Z,15.40
2022-09-26T10:25:56.410Z,15.22
2022-09-26T10:26:56.395Z,15.04
2022-09-26T10:27:56.377Z,14.86
2022-09-26T10:28:56.390Z,14.96
2022-09-26T10:29:56.379Z,15.04
2022-09-26T10:30:56.389Z,14.89
2022-09-26T10:31:56.489Z,14.86
2022-09-26T10:32:56.917Z,15.10
2022-09-26T10:33:56.319Z,15.26
2022-09-26T10:34:56.310Z,15.12
2022-09-26T10:35:56.311Z,14.90
2022-09-26T10:36:56.286Z,14.77
2022-09-26T10:37:56.284Z,14.82
2022-09-26T10:38:56.262Z,14.89
2022-09-26T10:39:56.253Z,14.86
2022-09-26T10:40:56.346Z,14.93
2022-09-26T10:41:56.233Z,15.08
2022-09-26T10:42:56.225Z,15.26
2022-09-26T10:43:56.214Z,15.38
2022-09-26T10:44:56.196Z,15.20
2022-09-26T10:45:56.260Z,15.10
2022-09-26T10:46:56.281Z,15.23
2022-09-26T10:47:56.175Z,15.32
2022-09-26T10:48:56.159Z,15.33
2022-09-26T10:49:56.156Z,15.35
2022-09-26T10:50:56.157Z,15.30
2022-09-26T10:51:56.127Z,15.35
2022-09-26T10:52:56.118Z,15.43
2022-09-26T10:53:56.109Z,15.48
2022-09-26T10:54:56.088Z,15.35
2022-09-26T10:55:56.099Z,15.23
2022-09-26T10:56:56.088Z,15.14
2022-09-26T10:57:56.939Z,15.32
2022-09-26T10:58:56.051Z,15.32
2022-09-26T10:59:56.048Z,15.38
2022-09-26T11:00:56.041Z,15.27
2022-09-26T11:01:56.125Z,15.15
2022-09-26T11:02:56.011Z,15.04
2022-09-26T11:03:56.102Z,14.93
2022-09-26T11:04:55.983Z,14.85
2022-09-26T11:05:56.003Z,14.73
2022-09-26T11:06:55.966Z,14.64
2022-09-26T11:07:55.954Z,14.56
2022-09-26T11:08:55.946Z,14.49
2022-09-26T11:09:55.935Z,14.45
2022-09-26T11:10:55.934Z,14.37
2022-09-26T11:11:55.915Z,14.31
2022-09-26T11:12:55.904Z,14.27
2022-09-26T11:13:55.896Z,14.21
2022-09-26T11:14:55.885Z,14.13
2022-09-26T11:15:55.957Z,14.11
2022-09-26T11:16:55.860Z,14.08
2022-09-26T11:17:55.856Z,14.08
2022-09-26T11:18:55.838Z,14.04
2022-09-26T11:19:55.838Z,14.01
2022-09-26T11:20:55.832Z,14.04
2022-09-26T11:21:55.814Z,14.04
2022-09-26T11:22:55.799Z,14.04
2022-09-26T11:23:55.800Z,14.05
2022-09-26T11:24:55.786Z,14.08
2022-09-26T11:25:58.111Z,14.08
2022-09-26T11:26:55.763Z,14.08
2022-09-26T11:27:55.752Z,14.11
2022-09-26T11:28:55.741Z,14.12
2022-09-26T11:29:55.743Z,14.21
2022-09-26T11:30:55.765Z,14.26
2022-09-26T11:32:00.045Z,14.28
2022-09-26T11:32:55.704Z,14.37
2022-09-26T11:33:55.684Z,14.49
2022-09-26T11:34:55.672Z,14.55
2022-09-26T11:35:55.674Z,14.55
2022-09-26T11:36:55.646Z,14.48
2022-09-26T11:37:55.645Z,14.49
2022-09-26T11:38:55.624Z,14.48
2022-09-26T11:39:55.615Z,14.41
2022-09-26T11:40:55.639Z,14.36
2022-09-26T11:41:55.595Z,14.30
2022-09-26T11:42:55.602Z,14.23
2022-09-26T11:43:55.576Z,14.22
2022-09-26T11:44:55.579Z,14.21
2022-09-26T11:45:55.590Z,14.21
2022-09-26T11:46:55.577Z,14.27
2022-09-26T11:47:55.537Z,14.48
2022-09-26T11:48:55.522Z,14.79
2022-09-26T11:49:55.532Z,14.86
2022-09-26T11:50:55.499Z,14.89
2022-09-26T11:51:55.492Z,14.85
2022-09-26T11:52:55.488Z,14.87
2022-09-26T11:53:55.472Z,14.89
2022-09-26T11:54:55.471Z,14.90
2022-09-26T11:55:55.451Z,14.86
2022-09-26T11:56:55.431Z,14.82
2022-09-26T11:57:55.439Z,14.77
2022-09-26T11:58:55.420Z,14.71
2022-09-26T11:59:55.413Z,14.71
2022-09-26T12:00:55.423Z,14.69
2022-09-26T12:01:55.383Z,14.64
2022-09-26T12:02:55.530Z,14.63
2022-09-26T12:03:55.453Z,14.58
2022-09-26T12:04:55.378Z,14.52
2022-09-26T12:05:55.344Z,14.51
2022-09-26T12:06:55.327Z,14.45
2022-09-26T12:07:55.376Z,14.45
2022-09-26T12:08:55.307Z,14.37
2022-09-26T12:09:55.400Z,14.34
2022-09-26T12:10:55.288Z,14.30
2022-09-26T12:11:55.277Z,14.27
2022-09-26T12:12:55.268Z,14.23
2022-09-26T12:13:55.262Z,14.22
2022-09-26T12:14:55.259Z,14.21
2022-09-26T12:15:55.278Z,14.18
2022-09-26T12:16:55.252Z,14.18
2022-09-26T12:17:55.219Z,14.18
2022-09-26T12:18:55.208Z,14.19
2022-09-26T12:19:55.211Z,14.19
2022-09-26T12:20:55.191Z,14.18
2022-09-26T12:21:55.171Z,14.19
2022-09-26T12:22:55.161Z,14.16
2022-09-26T12:23:55.151Z,14.16
2022-09-26T12:24:55.160Z,14.13
2022-09-26T12:25:55.137Z,14.12
2022-09-26T12:26:55.124Z,14.11
2022-09-26T12:27:55.113Z,14.09
2022-09-26T12:28:55.093Z,14.05
2022-09-26T12:29:55.113Z,14.05
2022-09-26T12:30:55.137Z,14.01
2022-09-26T12:31:55.122Z,14.03
2022-09-26T12:32:55.095Z,14.03
2022-09-26T12:33:55.061Z,14.03
2022-09-26T12:34:55.046Z,14.01
2022-09-26T12:35:55.026Z,14.03
2022-09-26T12:36:55.006Z,14.03
2022-09-26T12:37:55.006Z,14.04
2022-09-26T12:38:56.810Z,14.03
2022-09-26T12:39:54.997Z,14.04
2022-09-26T12:40:55.019Z,14.03
2022-09-26T12:41:54.958Z,14.04
2022-09-26T12:42:54.947Z,14.08
2022-09-26T12:43:54.940Z,14.08
2022-09-26T12:44:54.939Z,14.09
2022-09-26T12:45:54.920Z,14.12
2022-09-26T12:46:55.062Z,14.12
2022-09-26T12:47:54.892Z,14.12
2022-09-26T12:48:54.880Z,14.11
2022-09-26T12:49:54.891Z,14.09
2022-09-26T12:50:54.891Z,14.09
2022-09-26T12:51:54.851Z,14.08
2022-09-26T12:52:54.842Z,14.04
2022-09-26T12:53:54.831Z,14.03
2022-09-26T12:54:54.983Z,14.01
2022-09-26T12:55:54.831Z,14.03
2022-09-26T12:56:54.831Z,14.04
2022-09-26T12:57:54.790Z,14.05
2022-09-26T12:58:54.774Z,14.11
2022-09-26T12:59:54.784Z,14.11
2022-09-26T13:00:54.754Z,14.13
2022-09-26T13:01:54.773Z,14.15
2022-09-26T13:02:54.822Z,14.19
2022-09-26T13:03:54.726Z,14.19
2022-09-26T13:04:54.736Z,14.21
2022-09-26T13:05:54.716Z,14.22
2022-09-26T13:07:14.768Z,14.26
2022-09-26T13:07:55.685Z,14.27
2022-09-26T13:08:54.680Z,14.28
2022-09-26T13:09:54.679Z,14.26